sensor_id;sensor_type;location;lat;lon;timestamp;pressure;altitude;pressure_sealevel;temperature;humidity
75650;BME280;64245;51.282;22.494;2023-05-27T00:02:16;99751.50;;;10.15;66.78
75650;BME280;64245;51.282;22.494;2023-05-27T00:04:42;99756.53;;;10.19;67.21
75650;BME280;64245;51.282;22.494;2023-05-27T00:07:07;99769.31;;;10.27;66.81
75650;BME280;64245;51.282;22.494;2023-05-27T00:09:33;99756.53;;;10.19;67.49
75650;BME280;64245;51.282;22.494;2023-05-27T00:11:59;99761.06;;;10.19;68.24
75650;BME280;64245;51.282;22.494;2023-05-27T00:14:25;99753.56;;;10.22;67.44
75650;BME280;64245;51.282;22.494;2023-05-27T00:16:51;99760.06;;;10.41;67.53
75650;BME280;64245;51.282;22.494;2023-05-27T00:19:16;99759.22;;;10.40;67.97
75650;BME280;64245;51.282;22.494;2023-05-27T00:21:42;99766.31;;;10.41;67.55
75650;BME280;64245;51.282;22.494;2023-05-27T00:24:08;99754.97;;;10.37;67.67
75650;BME280;64245;51.282;22.494;2023-05-27T00:26:35;99753.44;;;10.45;68.25
75650;BME280;64245;51.282;22.494;2023-05-27T00:29:00;99749.84;;;10.34;68.19
75650;BME280;64245;51.282;22.494;2023-05-27T00:31:26;99758.66;;;10.36;67.77
75650;BME280;64245;51.282;22.494;2023-05-27T00:33:52;99769.72;;;10.43;67.46
75650;BME280;64245;51.282;22.494;2023-05-27T00:36:18;99767.75;;;10.45;67.98
75650;BME280;64245;51.282;22.494;2023-05-27T00:38:44;99767.56;;;10.37;67.41
75650;BME280;64245;51.282;22.494;2023-05-27T00:41:14;99767.09;;;10.32;67.89
75650;BME280;64245;51.282;22.494;2023-05-27T00:43:40;99761.38;;;10.25;68.75
75650;BME280;64245;51.282;22.494;2023-05-27T00:46:06;99776.03;;;10.32;68.24
75650;BME280;64245;51.282;22.494;2023-05-27T00:48:31;99773.00;;;10.26;69.08
75650;BME280;64245;51.282;22.494;2023-05-27T00:50:57;99761.28;;;10.16;69.26
75650;BME280;64245;51.282;22.494;2023-05-27T00:53:23;99768.03;;;10.10;69.05
75650;BME280;64245;51.282;22.494;2023-05-27T00:55:53;99763.78;;;10.08;69.87
75650;BME280;64245;51.282;22.494;2023-05-27T00:58:19;99766.59;;;10.06;69.95
75650;BME280;64245;51.282;22.494;2023-05-27T01:00:48;99773.88;;;9.94;69.96
75650;BME280;64245;51.282;22.494;2023-05-27T01:03:13;99782.78;;;9.95;70.70
75650;BME280;64245;51.282;22.494;2023-05-27T01:05:41;99764.41;;;9.79;71.29
75650;BME280;64245;51.282;22.494;2023-05-27T01:08:16;99773.34;;;9.68;71.45
75650;BME280;64245;51.282;22.494;2023-05-27T01:10:53;99769.31;;;9.63;71.95
75650;BME280;64245;51.282;22.494;2023-05-27T01:13:50;99773.38;;;9.57;72.11
75650;BME280;64245;51.282;22.494;2023-05-27T01:16:18;99784.50;;;9.53;72.95
75650;BME280;64245;51.282;22.494;2023-05-27T01:18:45;99769.13;;;9.44;73.24
75650;BME280;64245;51.282;22.494;2023-05-27T01:21:15;99785.00;;;9.47;73.45
75650;BME280;64245;51.282;22.494;2023-05-27T01:23:47;99783.56;;;9.43;73.63
75650;BME280;64245;51.282;22.494;2023-05-27T01:26:14;99781.13;;;9.28;73.95
75650;BME280;64245;51.282;22.494;2023-05-27T01:28:40;99791.88;;;9.28;74.30
75650;BME280;64245;51.282;22.494;2023-05-27T01:31:19;99795.78;;;9.24;74.80
75650;BME280;64245;51.282;22.494;2023-05-27T01:33:51;99772.97;;;9.08;74.81
75650;BME280;64245;51.282;22.494;2023-05-27T01:36:20;99788.84;;;9.11;75.54
75650;BME280;64245;51.282;22.494;2023-05-27T01:38:48;99783.25;;;9.03;75.51
75650;BME280;64245;51.282;22.494;2023-05-27T01:41:15;99770.91;;;9.00;75.91
75650;BME280;64245;51.282;22.494;2023-05-27T01:43:41;99780.44;;;8.93;76.46
75650;BME280;64245;51.282;22.494;2023-05-27T01:46:08;99775.31;;;8.79;76.81
75650;BME280;64245;51.282;22.494;2023-05-27T01:48:34;99772.97;;;8.74;77.10
75650;BME280;64245;51.282;22.494;2023-05-27T01:50:59;99783.47;;;8.77;77.59
75650;BME280;64245;51.282;22.494;2023-05-27T01:53:25;99785.53;;;8.74;78.15
75650;BME280;64245;51.282;22.494;2023-05-27T01:55:51;99779.78;;;8.67;78.03
75650;BME280;64245;51.282;22.494;2023-05-27T01:58:16;99780.28;;;8.61;78.50
75650;BME280;64245;51.282;22.494;2023-05-27T02:00:42;99785.66;;;8.61;78.56
75650;BME280;64245;51.282;22.494;2023-05-27T02:03:07;99773.69;;;8.54;78.59
75650;BME280;64245;51.282;22.494;2023-05-27T02:05:33;99787.34;;;8.51;79.19
75650;BME280;64245;51.282;22.494;2023-05-27T02:08:01;99801.00;;;8.48;79.30
75650;BME280;64245;51.282;22.494;2023-05-27T02:10:28;99791.59;;;8.42;79.71
75650;BME280;64245;51.282;22.494;2023-05-27T02:12:53;99790.63;;;8.43;79.63
75650;BME280;64245;51.282;22.494;2023-05-27T02:15:19;99789.16;;;8.39;80.01
75650;BME280;64245;51.282;22.494;2023-05-27T02:17:49;99793.47;;;8.29;80.82
75650;BME280;64245;51.282;22.494;2023-05-27T02:20:24;99800.19;;;8.23;81.35
75650;BME280;64245;51.282;22.494;2023-05-27T02:22:50;99799.81;;;8.28;81.48
75650;BME280;64245;51.282;22.494;2023-05-27T02:25:16;99804.59;;;8.24;81.20
75650;BME280;64245;51.282;22.494;2023-05-27T02:27:42;99792.56;;;8.06;81.11
75650;BME280;64245;51.282;22.494;2023-05-27T02:30:10;99803.91;;;8.10;81.39
75650;BME280;64245;51.282;22.494;2023-05-27T02:32:36;99812.22;;;8.07;81.91
75650;BME280;64245;51.282;22.494;2023-05-27T02:35:01;99813.09;;;7.94;82.74
75650;BME280;64245;51.282;22.494;2023-05-27T02:37:28;99819.44;;;7.93;83.38
75650;BME280;64245;51.282;22.494;2023-05-27T02:39:54;99825.72;;;7.81;84.30
75650;BME280;64245;51.282;22.494;2023-05-27T02:42:20;99830.03;;;7.71;84.07
75650;BME280;64245;51.282;22.494;2023-05-27T02:44:46;99806.94;;;7.57;84.65
75650;BME280;64245;51.282;22.494;2023-05-27T02:47:11;99821.72;;;7.63;84.88
75650;BME280;64245;51.282;22.494;2023-05-27T02:49:37;99811.28;;;7.47;85.11
75650;BME280;64245;51.282;22.494;2023-05-27T02:52:03;99806.47;;;7.40;85.59
75650;BME280;64245;51.282;22.494;2023-05-27T02:54:29;99805.19;;;7.45;85.46
75650;BME280;64245;51.282;22.494;2023-05-27T02:56:54;99814.63;;;7.38;85.63
75650;BME280;64245;51.282;22.494;2023-05-27T02:59:20;99834.66;;;7.45;86.40
75650;BME280;64245;51.282;22.494;2023-05-27T03:01:46;99824.69;;;7.35;86.59
75650;BME280;64245;51.282;22.494;2023-05-27T03:04:11;99840.22;;;7.42;87.19
75650;BME280;64245;51.282;22.494;2023-05-27T03:06:37;99827.06;;;7.39;86.42
75650;BME280;64245;51.282;22.494;2023-05-27T03:09:03;99840.81;;;7.58;86.69
75650;BME280;64245;51.282;22.494;2023-05-27T03:11:29;99831.50;;;7.51;87.05
75650;BME280;64245;51.282;22.494;2023-05-27T03:13:55;99835.41;;;7.47;87.27
75650;BME280;64245;51.282;22.494;2023-05-27T03:16:20;99840.75;;;7.47;87.32
75650;BME280;64245;51.282;22.494;2023-05-27T03:18:48;99817.13;;;7.28;87.38
75650;BME280;64245;51.282;22.494;2023-05-27T03:21:14;99846.06;;;7.23;89.13
75650;BME280;64245;51.282;22.494;2023-05-27T03:23:40;99836.97;;;7.26;89.01
75650;BME280;64245;51.282;22.494;2023-05-27T03:26:05;99836.63;;;7.18;89.40
75650;BME280;64245;51.282;22.494;2023-05-27T03:28:31;99838.31;;;7.32;89.03
75650;BME280;64245;51.282;22.494;2023-05-27T03:30:56;99851.16;;;7.39;88.45
75650;BME280;64245;51.282;22.494;2023-05-27T03:33:23;99848.31;;;7.30;88.89
75650;BME280;64245;51.282;22.494;2023-05-27T03:35:49;99850.53;;;7.36;89.39
75650;BME280;64245;51.282;22.494;2023-05-27T03:38:15;99842.59;;;7.47;88.86
75650;BME280;64245;51.282;22.494;2023-05-27T03:40:40;99847.72;;;7.50;87.67
75650;BME280;64245;51.282;22.494;2023-05-27T03:43:06;99863.97;;;7.59;88.58
75650;BME280;64245;51.282;22.494;2023-05-27T03:45:32;99843.56;;;7.33;89.04
75650;BME280;64245;51.282;22.494;2023-05-27T03:47:58;99854.44;;;7.55;88.32
75650;BME280;64245;51.282;22.494;2023-05-27T03:50:23;99863.88;;;7.61;88.22
75650;BME280;64245;51.282;22.494;2023-05-27T03:52:49;99860.13;;;7.63;88.30
75650;BME280;64245;51.282;22.494;2023-05-27T03:55:15;99855.63;;;7.64;87.84
75650;BME280;64245;51.282;22.494;2023-05-27T03:57:42;99875.72;;;7.82;87.43
75650;BME280;64245;51.282;22.494;2023-05-27T04:00:08;99880.13;;;7.71;87.86
75650;BME280;64245;51.282;22.494;2023-05-27T04:02:38;99879.41;;;7.69;88.89
75650;BME280;64245;51.282;22.494;2023-05-27T04:05:04;99887.50;;;7.80;87.90
75650;BME280;64245;51.282;22.494;2023-05-27T04:07:30;99868.22;;;7.75;87.43
75650;BME280;64245;51.282;22.494;2023-05-27T04:09:57;99887.75;;;8.01;87.80
75650;BME280;64245;51.282;22.494;2023-05-27T04:12:23;99891.31;;;8.01;86.66
75650;BME280;64245;51.282;22.494;2023-05-27T04:14:49;99892.72;;;7.94;87.74
75650;BME280;64245;51.282;22.494;2023-05-27T04:17:15;99880.22;;;8.06;86.84
75650;BME280;64245;51.282;22.494;2023-05-27T04:19:40;99895.09;;;8.10;86.68
75650;BME280;64245;51.282;22.494;2023-05-27T04:22:06;99891.97;;;8.16;86.03
75650;BME280;64245;51.282;22.494;2023-05-27T04:24:32;99899.47;;;8.23;85.99
75650;BME280;64245;51.282;22.494;2023-05-27T04:26:57;99897.63;;;8.24;86.18
75650;BME280;64245;51.282;22.494;2023-05-27T04:29:23;99881.91;;;8.30;85.52
75650;BME280;64245;51.282;22.494;2023-05-27T04:31:49;99881.84;;;8.32;86.13
75650;BME280;64245;51.282;22.494;2023-05-27T04:34:15;99898.13;;;8.42;86.10
75650;BME280;64245;51.282;22.494;2023-05-27T04:36:42;99883.75;;;8.30;87.22
75650;BME280;64245;51.282;22.494;2023-05-27T04:39:09;99894.72;;;8.51;85.37
75650;BME280;64245;51.282;22.494;2023-05-27T04:41:37;99887.53;;;8.51;85.94
75650;BME280;64245;51.282;22.494;2023-05-27T04:44:05;99890.38;;;8.61;86.60
75650;BME280;64245;51.282;22.494;2023-05-27T04:46:31;99894.03;;;8.60;85.53
75650;BME280;64245;51.282;22.494;2023-05-27T04:48:56;99885.63;;;8.64;85.15
75650;BME280;64245;51.282;22.494;2023-05-27T04:51:22;99883.63;;;8.55;84.32
75650;BME280;64245;51.282;22.494;2023-05-27T04:53:48;99901.25;;;8.71;84.36
75650;BME280;64245;51.282;22.494;2023-05-27T04:56:14;99907.88;;;8.89;84.60
75650;BME280;64245;51.282;22.494;2023-05-27T04:58:45;99885.78;;;8.85;84.26
75650;BME280;64245;51.282;22.494;2023-05-27T05:01:15;99886.16;;;8.81;84.08
75650;BME280;64245;51.282;22.494;2023-05-27T05:03:46;99897.91;;;9.02;84.31
75650;BME280;64245;51.282;22.494;2023-05-27T05:06:28;99883.25;;;9.06;84.55
75650;BME280;64245;51.282;22.494;2023-05-27T05:08:53;99874.72;;;9.12;83.16
75650;BME280;64245;51.282;22.494;2023-05-27T05:11:19;99876.31;;;9.04;84.14
75650;BME280;64245;51.282;22.494;2023-05-27T05:13:45;99890.84;;;9.01;83.07
75650;BME280;64245;51.282;22.494;2023-05-27T05:16:11;99893.75;;;9.09;83.89
75650;BME280;64245;51.282;22.494;2023-05-27T05:18:36;99883.63;;;9.13;83.14
75650;BME280;64245;51.282;22.494;2023-05-27T05:21:02;99882.41;;;9.17;83.23
75650;BME280;64245;51.282;22.494;2023-05-27T05:23:28;99891.94;;;9.32;83.50
75650;BME280;64245;51.282;22.494;2023-05-27T05:25:55;99871.03;;;9.24;83.37
75650;BME280;64245;51.282;22.494;2023-05-27T05:28:23;99881.31;;;9.30;82.90
75650;BME280;64245;51.282;22.494;2023-05-27T05:30:49;99882.66;;;9.47;83.55
75650;BME280;64245;51.282;22.494;2023-05-27T05:33:15;99871.78;;;9.60;83.21
75650;BME280;64245;51.282;22.494;2023-05-27T05:35:41;99881.53;;;9.72;82.24
75650;BME280;64245;51.282;22.494;2023-05-27T05:38:06;99875.41;;;9.70;81.14
75650;BME280;64245;51.282;22.494;2023-05-27T05:40:32;99868.22;;;9.70;82.00
75650;BME280;64245;51.282;22.494;2023-05-27T05:42:58;99874.56;;;9.69;82.32
75650;BME280;64245;51.282;22.494;2023-05-27T05:45:24;99877.94;;;9.83;80.66
75650;BME280;64245;51.282;22.494;2023-05-27T05:47:50;99907.63;;;10.03;81.12
75650;BME280;64245;51.282;22.494;2023-05-27T05:50:16;99889.28;;;10.09;80.48
75650;BME280;64245;51.282;22.494;2023-05-27T05:52:42;99896.72;;;10.27;79.95
75650;BME280;64245;51.282;22.494;2023-05-27T05:55:08;99892.91;;;10.30;78.88
75650;BME280;64245;51.282;22.494;2023-05-27T05:57:34;99902.19;;;10.37;78.80
75650;BME280;64245;51.282;22.494;2023-05-27T06:00:00;99906.75;;;10.57;79.24
75650;BME280;64245;51.282;22.494;2023-05-27T06:02:25;99905.38;;;10.63;79.11
75650;BME280;64245;51.282;22.494;2023-05-27T06:04:51;99880.00;;;10.65;79.42
75650;BME280;64245;51.282;22.494;2023-05-27T06:07:17;99899.34;;;10.70;78.13
75650;BME280;64245;51.282;22.494;2023-05-27T06:09:43;99893.69;;;10.73;77.83
75650;BME280;64245;51.282;22.494;2023-05-27T06:12:08;99900.34;;;10.90;78.85
75650;BME280;64245;51.282;22.494;2023-05-27T06:14:34;99907.94;;;11.06;77.33
75650;BME280;64245;51.282;22.494;2023-05-27T06:17:00;99914.53;;;11.13;76.30
75650;BME280;64245;51.282;22.494;2023-05-27T06:19:25;99904.28;;;11.07;77.06
75650;BME280;64245;51.282;22.494;2023-05-27T06:21:51;99918.25;;;11.22;76.65
75650;BME280;64245;51.282;22.494;2023-05-27T06:24:17;99927.25;;;11.32;77.21
75650;BME280;64245;51.282;22.494;2023-05-27T06:26:44;99906.41;;;11.34;75.41
75650;BME280;64245;51.282;22.494;2023-05-27T06:29:10;99922.59;;;11.64;77.53
75650;BME280;64245;51.282;22.494;2023-05-27T06:31:36;99932.19;;;11.78;75.83
75650;BME280;64245;51.282;22.494;2023-05-27T06:34:01;99926.47;;;11.71;74.35
75650;BME280;64245;51.282;22.494;2023-05-27T06:36:33;99921.13;;;11.60;75.85
75650;BME280;64245;51.282;22.494;2023-05-27T06:39:02;99925.53;;;11.61;74.36
75650;BME280;64245;51.282;22.494;2023-05-27T06:41:29;99918.41;;;11.51;74.06
75650;BME280;64245;51.282;22.494;2023-05-27T06:43:54;99916.59;;;11.61;74.95
75650;BME280;64245;51.282;22.494;2023-05-27T06:46:20;99921.06;;;11.71;73.77
75650;BME280;64245;51.282;22.494;2023-05-27T06:48:49;99902.97;;;11.62;73.69
75650;BME280;64245;51.282;22.494;2023-05-27T06:51:15;99934.78;;;11.89;73.81
75650;BME280;64245;51.282;22.494;2023-05-27T06:53:42;99927.75;;;12.17;74.60
75650;BME280;64245;51.282;22.494;2023-05-27T06:56:09;99906.59;;;12.22;74.29
75650;BME280;64245;51.282;22.494;2023-05-27T06:58:35;99911.13;;;12.22;72.22
75650;BME280;64245;51.282;22.494;2023-05-27T07:01:01;99913.28;;;12.28;74.77
75650;BME280;64245;51.282;22.494;2023-05-27T07:03:32;99919.69;;;12.46;74.37
75650;BME280;64245;51.282;22.494;2023-05-27T07:05:57;99908.16;;;12.54;74.57
75650;BME280;64245;51.282;22.494;2023-05-27T07:08:26;99906.03;;;12.76;75.23
75650;BME280;64245;51.282;22.494;2023-05-27T07:10:51;99925.09;;;12.85;73.95
75650;BME280;64245;51.282;22.494;2023-05-27T07:13:29;99931.66;;;12.63;71.80
75650;BME280;64245;51.282;22.494;2023-05-27T07:15:58;99908.88;;;12.56;72.66
75650;BME280;64245;51.282;22.494;2023-05-27T07:18:26;99933.19;;;12.75;73.41
75650;BME280;64245;51.282;22.494;2023-05-27T07:20:51;99909.44;;;12.78;73.24
75650;BME280;64245;51.282;22.494;2023-05-27T07:23:17;99908.16;;;12.73;71.59
75650;BME280;64245;51.282;22.494;2023-05-27T07:25:44;99923.81;;;12.89;71.54
75650;BME280;64245;51.282;22.494;2023-05-27T07:28:10;99910.69;;;12.94;72.83
75650;BME280;64245;51.282;22.494;2023-05-27T07:30:36;99917.34;;;13.09;71.73
75650;BME280;64245;51.282;22.494;2023-05-27T07:33:05;99907.81;;;13.14;72.12
75650;BME280;64245;51.282;22.494;2023-05-27T07:35:31;99929.47;;;13.24;71.53
75650;BME280;64245;51.282;22.494;2023-05-27T07:37:56;99921.22;;;13.16;70.15
75650;BME280;64245;51.282;22.494;2023-05-27T07:40:26;99909.69;;;13.04;72.62
75650;BME280;64245;51.282;22.494;2023-05-27T07:42:54;99918.69;;;13.52;70.87
75650;BME280;64245;51.282;22.494;2023-05-27T07:45:20;99923.25;;;13.51;70.02
75650;BME280;64245;51.282;22.494;2023-05-27T07:47:48;99905.84;;;13.26;71.43
75650;BME280;64245;51.282;22.494;2023-05-27T07:50:13;99911.78;;;13.39;72.33
75650;BME280;64245;51.282;22.494;2023-05-27T07:52:40;99921.13;;;13.55;72.87
75650;BME280;64245;51.282;22.494;2023-05-27T07:55:07;99914.34;;;13.68;71.00
75650;BME280;64245;51.282;22.494;2023-05-27T07:57:33;99902.91;;;13.84;71.51
75650;BME280;64245;51.282;22.494;2023-05-27T08:00:02;99925.88;;;13.80;68.88
75650;BME280;64245;51.282;22.494;2023-05-27T08:02:28;99906.22;;;13.41;69.28
75650;BME280;64245;51.282;22.494;2023-05-27T08:04:53;99893.75;;;13.58;68.82
75650;BME280;64245;51.282;22.494;2023-05-27T08:07:24;99916.38;;;13.94;68.45
75650;BME280;64245;51.282;22.494;2023-05-27T08:09:54;99907.84;;;14.16;72.86
75650;BME280;64245;51.282;22.494;2023-05-27T08:12:30;99897.75;;;14.08;67.59
75650;BME280;64245;51.282;22.494;2023-05-27T08:14:57;99892.16;;;13.92;68.30
75650;BME280;64245;51.282;22.494;2023-05-27T08:17:26;99932.72;;;14.29;67.04
75650;BME280;64245;51.282;22.494;2023-05-27T08:19:52;99920.72;;;14.32;65.93
75650;BME280;64245;51.282;22.494;2023-05-27T08:22:27;99902.09;;;14.01;67.23
75650;BME280;64245;51.282;22.494;2023-05-27T08:24:52;99906.41;;;14.22;68.70
75650;BME280;64245;51.282;22.494;2023-05-27T08:27:59;99931.75;;;14.66;66.91
75650;BME280;64245;51.282;22.494;2023-05-27T08:30:32;99918.59;;;14.53;65.67
75650;BME280;64245;51.282;22.494;2023-05-27T08:33:01;99920.59;;;14.51;66.66
75650;BME280;64245;51.282;22.494;2023-05-27T08:35:26;99920.47;;;14.52;66.22
75650;BME280;64245;51.282;22.494;2023-05-27T08:37:59;99918.75;;;14.69;67.73
75650;BME280;64245;51.282;22.494;2023-05-27T08:40:25;99920.31;;;14.54;65.89
75650;BME280;64245;51.282;22.494;2023-05-27T08:42:51;99906.13;;;14.78;67.46
75650;BME280;64245;51.282;22.494;2023-05-27T08:45:19;99893.97;;;15.08;65.92
75650;BME280;64245;51.282;22.494;2023-05-27T08:47:45;99904.91;;;15.16;66.05
75650;BME280;64245;51.282;22.494;2023-05-27T08:50:17;99907.63;;;15.16;64.61
75650;BME280;64245;51.282;22.494;2023-05-27T08:52:52;99911.88;;;15.18;64.59
75650;BME280;64245;51.282;22.494;2023-05-27T08:55:29;99924.63;;;15.00;65.26
75650;BME280;64245;51.282;22.494;2023-05-27T08:57:57;99926.97;;;15.21;64.63
75650;BME280;64245;51.282;22.494;2023-05-27T09:00:24;99903.19;;;15.15;63.60
75650;BME280;64245;51.282;22.494;2023-05-27T09:02:59;99891.06;;;14.83;64.34
75650;BME280;64245;51.282;22.494;2023-05-27T09:05:25;99920.75;;;15.29;64.95
75650;BME280;64245;51.282;22.494;2023-05-27T09:08:07;99910.19;;;15.69;65.94
75650;BME280;64245;51.282;22.494;2023-05-27T09:10:44;99896.06;;;16.08;64.31
75650;BME280;64245;51.282;22.494;2023-05-27T09:13:10;99888.03;;;15.98;60.56
75650;BME280;64245;51.282;22.494;2023-05-27T09:15:36;99907.47;;;16.19;63.15
75650;BME280;64245;51.282;22.494;2023-05-27T09:18:02;99909.41;;;16.35;61.67
75650;BME280;64245;51.282;22.494;2023-05-27T09:20:31;99893.44;;;16.32;61.57
75650;BME280;64245;51.282;22.494;2023-05-27T09:23:02;99908.69;;;16.25;61.00
75650;BME280;64245;51.282;22.494;2023-05-27T09:25:29;99902.56;;;16.23;59.83
75650;BME280;64245;51.282;22.494;2023-05-27T09:27:55;99900.44;;;16.51;61.65
75650;BME280;64245;51.282;22.494;2023-05-27T09:30:22;99888.16;;;16.55;58.28
75650;BME280;64245;51.282;22.494;2023-05-27T09:33:02;99895.22;;;16.74;61.56
75650;BME280;64245;51.282;22.494;2023-05-27T09:35:37;99907.28;;;16.96;58.18
75650;BME280;64245;51.282;22.494;2023-05-27T09:38:06;99904.53;;;17.28;59.66
75650;BME280;64245;51.282;22.494;2023-05-27T09:40:35;99897.03;;;17.46;60.40
75650;BME280;64245;51.282;22.494;2023-05-27T09:43:07;99890.44;;;17.08;60.26
75650;BME280;64245;51.282;22.494;2023-05-27T09:45:34;99877.88;;;16.83;59.17
75650;BME280;64245;51.282;22.494;2023-05-27T09:48:03;99894.31;;;17.38;57.44
75650;BME280;64245;51.282;22.494;2023-05-27T09:50:30;99882.69;;;17.52;58.80
75650;BME280;64245;51.282;22.494;2023-05-27T09:52:56;99880.72;;;17.30;57.73
75650;BME280;64245;51.282;22.494;2023-05-27T09:55:23;99891.16;;;17.74;57.01
75650;BME280;64245;51.282;22.494;2023-05-27T09:57:50;99891.06;;;17.98;54.40
75650;BME280;64245;51.282;22.494;2023-05-27T10:00:20;99887.63;;;17.57;55.34
75650;BME280;64245;51.282;22.494;2023-05-27T10:02:47;99896.28;;;17.60;55.77
75650;BME280;64245;51.282;22.494;2023-05-27T10:05:16;99867.19;;;17.61;57.74
75650;BME280;64245;51.282;22.494;2023-05-27T10:07:57;99898.47;;;17.81;54.32
75650;BME280;64245;51.282;22.494;2023-05-27T10:10:25;99899.13;;;17.12;53.87
75650;BME280;64245;51.282;22.494;2023-05-27T10:12:55;99902.34;;;16.75;53.91
75650;BME280;64245;51.282;22.494;2023-05-27T10:15:32;99896.38;;;17.20;55.21
75650;BME280;64245;51.282;22.494;2023-05-27T10:18:08;99900.97;;;17.91;56.46
75650;BME280;64245;51.282;22.494;2023-05-27T10:20:41;99875.00;;;17.56;53.32
75650;BME280;64245;51.282;22.494;2023-05-27T10:23:34;99873.81;;;17.58;53.21
75650;BME280;64245;51.282;22.494;2023-05-27T10:26:07;99909.09;;;18.07;50.89
75650;BME280;64245;51.282;22.494;2023-05-27T10:28:37;99902.94;;;18.44;49.60
75650;BME280;64245;51.282;22.494;2023-05-27T10:31:17;99894.53;;;18.77;50.20
75650;BME280;64245;51.282;22.494;2023-05-27T10:33:49;99905.09;;;19.03;47.26
75650;BME280;64245;51.282;22.494;2023-05-27T10:36:27;99901.69;;;19.38;52.38
75650;BME280;64245;51.282;22.494;2023-05-27T10:39:17;99886.88;;;18.95;47.75
75650;BME280;64245;51.282;22.494;2023-05-27T10:41:55;99886.84;;;18.49;49.57
75650;BME280;64245;51.282;22.494;2023-05-27T10:44:33;99891.28;;;18.81;50.06
75650;BME280;64245;51.282;22.494;2023-05-27T10:47:11;99895.06;;;18.95;49.45
75650;BME280;64245;51.282;22.494;2023-05-27T10:49:56;99895.53;;;18.84;49.25
75650;BME280;64245;51.282;22.494;2023-05-27T10:52:24;99898.81;;;18.17;50.87
75650;BME280;64245;51.282;22.494;2023-05-27T10:54:52;99885.00;;;18.73;48.19
75650;BME280;64245;51.282;22.494;2023-05-27T10:57:43;99888.59;;;20.07;46.80
75650;BME280;64245;51.282;22.494;2023-05-27T11:00:14;99866.63;;;20.51;45.45
75650;BME280;64245;51.282;22.494;2023-05-27T11:02:54;99907.09;;;19.61;46.74
75650;BME280;64245;51.282;22.494;2023-05-27T11:05:27;99888.25;;;20.46;45.08
75650;BME280;64245;51.282;22.494;2023-05-27T11:07:59;99878.22;;;20.53;43.72
75650;BME280;64245;51.282;22.494;2023-05-27T11:10:36;99895.75;;;21.23;44.15
75650;BME280;64245;51.282;22.494;2023-05-27T11:13:05;99887.28;;;21.46;42.48
75650;BME280;64245;51.282;22.494;2023-05-27T11:15:34;99877.28;;;21.31;42.94
75650;BME280;64245;51.282;22.494;2023-05-27T11:18:04;99899.50;;;20.22;44.31
75650;BME280;64245;51.282;22.494;2023-05-27T11:20:37;99883.91;;;19.86;43.38
75650;BME280;64245;51.282;22.494;2023-05-27T11:23:03;99885.59;;;21.45;43.48
75650;BME280;64245;51.282;22.494;2023-05-27T11:25:39;99903.63;;;21.60;41.71
75650;BME280;64245;51.282;22.494;2023-05-27T11:28:20;99872.78;;;21.86;38.38
75650;BME280;64245;51.282;22.494;2023-05-27T11:30:47;99871.63;;;21.40;41.43
75650;BME280;64245;51.282;22.494;2023-05-27T11:33:30;99889.50;;;21.63;41.09
75650;BME280;64245;51.282;22.494;2023-05-27T11:36:07;99879.44;;;22.05;39.45
75650;BME280;64245;51.282;22.494;2023-05-27T11:44:10;99883.09;;;22.86;38.25
75650;BME280;64245;51.282;22.494;2023-05-27T11:47:04;99885.19;;;21.82;35.97
75650;BME280;64245;51.282;22.494;2023-05-27T11:49:59;99876.00;;;22.57;37.86
75650;BME280;64245;51.282;22.494;2023-05-27T11:52:27;99839.97;;;23.00;38.35
75650;BME280;64245;51.282;22.494;2023-05-27T11:55:16;99870.38;;;23.38;37.43
75650;BME280;64245;51.282;22.494;2023-05-27T11:57:41;99865.94;;;23.11;35.80
75650;BME280;64245;51.282;22.494;2023-05-27T12:00:07;99864.41;;;23.81;35.88
75650;BME280;64245;51.282;22.494;2023-05-27T12:02:33;99870.34;;;24.35;36.69
75650;BME280;64245;51.282;22.494;2023-05-27T12:04:59;99855.81;;;24.60;33.40
75650;BME280;64245;51.282;22.494;2023-05-27T12:07:24;99863.97;;;24.41;32.71
75650;BME280;64245;51.282;22.494;2023-05-27T12:09:50;99872.31;;;23.24;33.81
75650;BME280;64245;51.282;22.494;2023-05-27T12:12:18;99864.03;;;23.37;37.58
75650;BME280;64245;51.282;22.494;2023-05-27T12:14:44;99865.53;;;23.66;34.11
75650;BME280;64245;51.282;22.494;2023-05-27T12:17:09;99851.56;;;24.19;36.62
75650;BME280;64245;51.282;22.494;2023-05-27T12:19:35;99869.00;;;24.83;32.03
75650;BME280;64245;51.282;22.494;2023-05-27T12:22:00;99865.25;;;24.77;33.80
75650;BME280;64245;51.282;22.494;2023-05-27T12:24:26;99872.34;;;25.66;32.41
75650;BME280;64245;51.282;22.494;2023-05-27T12:26:52;99856.41;;;24.93;33.12
75650;BME280;64245;51.282;22.494;2023-05-27T12:29:17;99871.22;;;23.58;35.16
75650;BME280;64245;51.282;22.494;2023-05-27T12:31:43;99870.47;;;24.02;33.10
75650;BME280;64245;51.282;22.494;2023-05-27T12:34:09;99861.75;;;24.57;32.04
75650;BME280;64245;51.282;22.494;2023-05-27T12:36:34;99860.41;;;24.66;30.90
75650;BME280;64245;51.282;22.494;2023-05-27T12:39:00;99857.91;;;24.26;33.34
75650;BME280;64245;51.282;22.494;2023-05-27T12:41:25;99849.38;;;23.83;31.41
75650;BME280;64245;51.282;22.494;2023-05-27T12:43:52;99852.13;;;24.72;32.35
75650;BME280;64245;51.282;22.494;2023-05-27T12:46:17;99864.25;;;25.21;28.83
75650;BME280;64245;51.282;22.494;2023-05-27T12:48:43;99859.03;;;25.13;30.60
75650;BME280;64245;51.282;22.494;2023-05-27T12:51:09;99865.50;;;25.25;29.21
75650;BME280;64245;51.282;22.494;2023-05-27T12:53:35;99848.50;;;25.28;28.57
75650;BME280;64245;51.282;22.494;2023-05-27T12:56:01;99865.78;;;24.86;28.96
75650;BME280;64245;51.282;22.494;2023-05-27T12:58:26;99846.34;;;25.55;28.95
75650;BME280;64245;51.282;22.494;2023-05-27T13:00:52;99856.75;;;25.53;27.09
75650;BME280;64245;51.282;22.494;2023-05-27T13:03:18;99845.28;;;24.82;28.25
75650;BME280;64245;51.282;22.494;2023-05-27T13:05:43;99845.94;;;24.77;26.93